sensor_id;sensor_type;location;lat;lon;timestamp;temperature;humidity
19829;DHT22;10075;50.924;4.396;2023-03-24T00:01:42;12.60;99.90
19829;DHT22;10075;50.924;4.396;2023-03-24T00:04:09;12.70;99.90
19829;DHT22;10075;50.924;4.396;2023-03-24T00:06:38;12.60;99.90
19829;DHT22;10075;50.924;4.396;2023-03-24T00:09:05;12.60;99.90
19829;DHT22;10075;50.924;4.396;2023-03-24T00:11:32;12.60;99.90
19829;DHT22;10075;50.924;4.396;2023-03-24T00:14:00;12.60;99.90
19829;DHT22;10075;50.924;4.396;2023-03-24T00:16:28;12.60;99.90
19829;DHT22;10075;50.924;4.396;2023-03-24T00:18:55;12.60;99.90
19829;DHT22;10075;50.924;4.396;2023-03-24T00:21:24;12.60;99.90
19829;DHT22;10075;50.924;4.396;2023-03-24T00:23:54;12.60;99.90
19829;DHT22;10075;50.924;4.396;2023-03-24T00:26:23;12.60;99.90
19829;DHT22;10075;50.924;4.396;2023-03-24T00:28:50;12.60;99.90
19829;DHT22;10075;50.924;4.396;2023-03-24T00:31:18;12.70;99.90
19829;DHT22;10075;50.924;4.396;2023-03-24T00:33:46;12.70;99.90
19829;DHT22;10075;50.924;4.396;2023-03-24T00:36:16;12.70;99.90
19829;DHT22;10075;50.924;4.396;2023-03-24T00:38:44;12.70;99.90
19829;DHT22;10075;50.924;4.396;2023-03-24T00:41:15;12.70;99.90
19829;DHT22;10075;50.924;4.396;2023-03-24T00:43:44;12.70;99.90
19829;DHT22;10075;50.924;4.396;2023-03-24T00:46:13;12.70;99.90
19829;DHT22;10075;50.924;4.396;2023-03-24T00:48:53;12.70;99.90
19829;DHT22;10075;50.924;4.396;2023-03-24T00:51:23;12.70;99.90
19829;DHT22;10075;50.924;4.396;2023-03-24T00:53:50;12.80;99.90
19829;DHT22;10075;50.924;4.396;2023-03-24T00:56:25;12.80;99.90
19829;DHT22;10075;50.924;4.396;2023-03-24T00:58:53;12.80;99.90
19829;DHT22;10075;50.924;4.396;2023-03-24T01:01:23;12.90;99.90
19829;DHT22;10075;50.924;4.396;2023-03-24T01:03:50;12.90;99.90
19829;DHT22;10075;50.924;4.396;2023-03-24T01:06:18;12.90;99.90
19829;DHT22;10075;50.924;4.396;2023-03-24T01:08:47;12.90;99.90
19829;DHT22;10075;50.924;4.396;2023-03-24T01:11:18;12.90;99.90
19829;DHT22;10075;50.924;4.396;2023-03-24T01:13:49;12.90;99.90
19829;DHT22;10075;50.924;4.396;2023-03-24T01:16:17;13.00;99.90
19829;DHT22;10075;50.924;4.396;2023-03-24T01:18:44;13.00;99.90
19829;DHT22;10075;50.924;4.396;2023-03-24T01:21:12;13.10;99.90
19829;DHT22;10075;50.924;4.396;2023-03-24T01:23:39;13.10;99.90
19829;DHT22;10075;50.924;4.396;2023-03-24T01:26:09;13.20;99.90
19829;DHT22;10075;50.924;4.396;2023-03-24T01:28:37;13.20;99.90
19829;DHT22;10075;50.924;4.396;2023-03-24T01:31:09;13.30;99.90
19829;DHT22;10075;50.924;4.396;2023-03-24T01:33:37;13.30;99.90
19829;DHT22;10075;50.924;4.396;2023-03-24T01:36:05;13.30;99.90
19829;DHT22;10075;50.924;4.396;2023-03-24T01:38:33;13.40;99.90
19829;DHT22;10075;50.924;4.396;2023-03-24T01:41:01;13.30;99.90
19829;DHT22;10075;50.924;4.396;2023-03-24T01:43:30;13.40;99.90
19829;DHT22;10075;50.924;4.396;2023-03-24T01:46:02;13.40;99.90
19829;DHT22;10075;50.924;4.396;2023-03-24T01:48:38;13.50;99.90
19829;DHT22;10075;50.924;4.396;2023-03-24T01:51:09;13.50;99.90
19829;DHT22;10075;50.924;4.396;2023-03-24T01:53:39;13.50;99.90
19829;DHT22;10075;50.924;4.396;2023-03-24T01:56:07;13.40;99.90
19829;DHT22;10075;50.924;4.396;2023-03-24T01:58:38;13.50;99.90
19829;DHT22;10075;50.924;4.396;2023-03-24T02:01:06;13.40;99.90
19829;DHT22;10075;50.924;4.396;2023-03-24T02:03:35;13.40;99.90
19829;DHT22;10075;50.924;4.396;2023-03-24T02:06:04;13.40;99.90
19829;DHT22;10075;50.924;4.396;2023-03-24T02:08:37;13.30;99.90
19829;DHT22;10075;50.924;4.396;2023-03-24T02:11:06;13.40;99.90
19829;DHT22;10075;50.924;4.396;2023-03-24T02:13:33;13.40;99.90
19829;DHT22;10075;50.924;4.396;2023-03-24T02:16:18;13.30;99.90
19829;DHT22;10075;50.924;4.396;2023-03-24T02:18:57;12.90;99.90
19829;DHT22;10075;50.924;4.396;2023-03-24T02:27:50;11.60;99.90
19829;DHT22;10075;50.924;4.396;2023-03-24T02:36:44;11.00;99.90
19829;DHT22;10075;50.924;4.396;2023-03-24T02:39:52;10.90;99.90
19829;DHT22;10075;50.924;4.396;2023-03-24T02:42:28;10.80;99.90
19829;DHT22;10075;50.924;4.396;2023-03-24T02:45:07;10.80;99.90
19829;DHT22;10075;50.924;4.396;2023-03-24T02:47:42;10.80;99.90
19829;DHT22;10075;50.924;4.396;2023-03-24T02:50:17;10.80;99.90
19829;DHT22;10075;50.924;4.396;2023-03-24T02:52:49;10.80;99.90
19829;DHT22;10075;50.924;4.396;2023-03-24T02:55:23;10.80;99.90
19829;DHT22;10075;50.924;4.396;2023-03-24T02:57:56;10.90;99.90
19829;DHT22;10075;50.924;4.396;2023-03-24T03:00:30;11.00;99.90
19829;DHT22;10075;50.924;4.396;2023-03-24T03:03:01;11.00;99.90
19829;DHT22;10075;50.924;4.396;2023-03-24T03:05:34;11.10;99.90
19829;DHT22;10075;50.924;4.396;2023-03-24T03:08:06;11.10;99.90
19829;DHT22;10075;50.924;4.396;2023-03-24T03:10:37;11.10;99.90
19829;DHT22;10075;50.924;4.396;2023-03-24T03:13:08;11.20;99.90
19829;DHT22;10075;50.924;4.396;2023-03-24T03:15:41;11.20;99.90
19829;DHT22;10075;50.924;4.396;2023-03-24T03:18:14;11.20;99.90
19829;DHT22;10075;50.924;4.396;2023-03-24T03:20:46;11.20;99.90
19829;DHT22;10075;50.924;4.396;2023-03-24T03:23:21;11.10;99.90
19829;DHT22;10075;50.924;4.396;2023-03-24T03:25:55;11.10;99.90
19829;DHT22;10075;50.924;4.396;2023-03-24T03:28:32;11.10;99.90
19829;DHT22;10075;50.924;4.396;2023-03-24T03:31:01;11.10;99.90
19829;DHT22;10075;50.924;4.396;2023-03-24T03:33:35;11.10;99.90
19829;DHT22;10075;50.924;4.396;2023-03-24T03:36:08;11.10;99.90
19829;DHT22;10075;50.924;4.396;2023-03-24T03:38:48;11.10;99.90
19829;DHT22;10075;50.924;4.396;2023-03-24T03:41:19;11.10;99.90
19829;DHT22;10075;50.924;4.396;2023-03-24T03:43:47;11.00;99.90
19829;DHT22;10075;50.924;4.396;2023-03-24T03:46:15;11.00;99.90
19829;DHT22;10075;50.924;4.396;2023-03-24T03:48:44;11.00;99.90
19829;DHT22;10075;50.924;4.396;2023-03-24T03:51:12;11.10;99.90
19829;DHT22;10075;50.924;4.396;2023-03-24T03:53:45;11.10;99.90
19829;DHT22;10075;50.924;4.396;2023-03-24T03:56:14;11.10;99.90
19829;DHT22;10075;50.924;4.396;2023-03-24T03:58:46;11.10;99.90
19829;DHT22;10075;50.924;4.396;2023-03-24T04:01:16;11.00;99.90
19829;DHT22;10075;50.924;4.396;2023-03-24T04:04:08;11.10;99.90
19829;DHT22;10075;50.924;4.396;2023-03-24T04:06:40;11.00;99.90
19829;DHT22;10075;50.924;4.396;2023-03-24T04:09:21;11.10;99.90
19829;DHT22;10075;50.924;4.396;2023-03-24T04:12:07;11.20;99.90
19829;DHT22;10075;50.924;4.396;2023-03-24T04:17:56;11.20;99.90
19829;DHT22;10075;50.924;4.396;2023-03-24T04:20:31;11.20;99.90
19829;DHT22;10075;50.924;4.396;2023-03-24T04:23:07;11.20;99.90
19829;DHT22;10075;50.924;4.396;2023-03-24T04:25:45;11.20;99.90
19829;DHT22;10075;50.924;4.396;2023-03-24T04:28:20;11.30;99.90
19829;DHT22;10075;50.924;4.396;2023-03-24T04:30:56;11.30;99.90
19829;DHT22;10075;50.924;4.396;2023-03-24T04:33:29;11.30;99.90
19829;DHT22;10075;50.924;4.396;2023-03-24T04:36:01;11.30;99.90
19829;DHT22;10075;50.924;4.396;2023-03-24T04:38:32;11.30;99.90
19829;DHT22;10075;50.924;4.396;2023-03-24T04:41:04;11.30;99.90
19829;DHT22;10075;50.924;4.396;2023-03-24T04:43:32;11.30;99.90
19829;DHT22;10075;50.924;4.396;2023-03-24T04:46:04;11.20;99.90
19829;DHT22;10075;50.924;4.396;2023-03-24T04:48:31;11.20;99.90
19829;DHT22;10075;50.924;4.396;2023-03-24T04:51:00;11.30;99.90
19829;DHT22;10075;50.924;4.396;2023-03-24T04:53:28;11.30;99.90
19829;DHT22;10075;50.924;4.396;2023-03-24T04:56:04;11.30;99.90
19829;DHT22;10075;50.924;4.396;2023-03-24T04:58:33;11.30;99.90
19829;DHT22;10075;50.924;4.396;2023-03-24T05:01:00;11.20;99.90
19829;DHT22;10075;50.924;4.396;2023-03-24T05:03:29;11.10;99.90
19829;DHT22;10075;50.924;4.396;2023-03-24T05:05:56;11.00;99.90
19829;DHT22;10075;50.924;4.396;2023-03-24T05:08:23;10.90;99.90
19829;DHT22;10075;50.924;4.396;2023-03-24T05:10:50;10.80;99.90
19829;DHT22;10075;50.924;4.396;2023-03-24T05:13:17;10.70;99.90
19829;DHT22;10075;50.924;4.396;2023-03-24T05:15:45;10.60;99.90
19829;DHT22;10075;50.924;4.396;2023-03-24T05:18:12;10.50;99.90
19829;DHT22;10075;50.924;4.396;2023-03-24T05:20:40;10.50;99.90
19829;DHT22;10075;50.924;4.396;2023-03-24T05:23:07;10.40;99.90
19829;DHT22;10075;50.924;4.396;2023-03-24T05:25:34;10.30;99.90
19829;DHT22;10075;50.924;4.396;2023-03-24T05:28:01;10.30;99.90
19829;DHT22;10075;50.924;4.396;2023-03-24T05:30:28;10.20;99.90
19829;DHT22;10075;50.924;4.396;2023-03-24T05:32:55;10.20;99.90
19829;DHT22;10075;50.924;4.396;2023-03-24T05:35:22;10.20;99.90
19829;DHT22;10075;50.924;4.396;2023-03-24T05:37:51;10.10;99.90
19829;DHT22;10075;50.924;4.396;2023-03-24T05:40:18;10.10;99.90
19829;DHT22;10075;50.924;4.396;2023-03-24T05:42:47;10.10;99.90
19829;DHT22;10075;50.924;4.396;2023-03-24T05:45:14;10.10;99.90
19829;DHT22;10075;50.924;4.396;2023-03-24T05:47:41;10.10;99.90
19829;DHT22;10075;50.924;4.396;2023-03-24T05:50:09;10.00;99.90
19829;DHT22;10075;50.924;4.396;2023-03-24T05:52:36;10.00;99.90
19829;DHT22;10075;50.924;4.396;2023-03-24T05:55:05;10.00;99.90
19829;DHT22;10075;50.924;4.396;2023-03-24T05:57:34;10.00;99.90
19829;DHT22;10075;50.924;4.396;2023-03-24T06:00:02;10.00;99.90
19829;DHT22;10075;50.924;4.396;2023-03-24T06:02:31;10.00;99.90
19829;DHT22;10075;50.924;4.396;2023-03-24T06:04:59;10.10;99.90
19829;DHT22;10075;50.924;4.396;2023-03-24T06:07:26;10.10;99.90
19829;DHT22;10075;50.924;4.396;2023-03-24T06:09:55;10.10;99.90
19829;DHT22;10075;50.924;4.396;2023-03-24T06:12:23;10.10;99.90
19829;DHT22;10075;50.924;4.396;2023-03-24T06:14:50;10.10;99.90
19829;DHT22;10075;50.924;4.396;2023-03-24T06:17:17;10.10;99.90
19829;DHT22;10075;50.924;4.396;2023-03-24T06:19:46;10.10;99.90
19829;DHT22;10075;50.924;4.396;2023-03-24T06:22:15;10.30;99.90
19829;DHT22;10075;50.924;4.396;2023-03-24T06:24:42;10.40;99.90
19829;DHT22;10075;50.924;4.396;2023-03-24T06:27:09;10.50;99.90
19829;DHT22;10075;50.924;4.396;2023-03-24T06:29:40;10.60;99.90
19829;DHT22;10075;50.924;4.396;2023-03-24T06:32:08;10.70;99.90
19829;DHT22;10075;50.924;4.396;2023-03-24T06:34:35;10.80;99.90
19829;DHT22;10075;50.924;4.396;2023-03-24T06:37:03;10.80;99.90
19829;DHT22;10075;50.924;4.396;2023-03-24T06:39:31;10.90;99.90
19829;DHT22;10075;50.924;4.396;2023-03-24T06:41:57;11.00;99.90
19829;DHT22;10075;50.924;4.396;2023-03-24T06:44:25;11.00;99.90
19829;DHT22;10075;50.924;4.396;2023-03-24T06:46:54;11.10;99.90
19829;DHT22;10075;50.924;4.396;2023-03-24T06:49:21;11.30;99.90
19829;DHT22;10075;50.924;4.396;2023-03-24T06:51:48;11.50;99.90
19829;DHT22;10075;50.924;4.396;2023-03-24T06:54:15;11.70;99.90
19829;DHT22;10075;50.924;4.396;2023-03-24T06:56:43;11.90;99.90
19829;DHT22;10075;50.924;4.396;2023-03-24T06:59:10;12.00;99.90
19829;DHT22;10075;50.924;4.396;2023-03-24T07:01:37;12.10;99.90
19829;DHT22;10075;50.924;4.396;2023-03-24T07:04:06;12.20;99.90
19829;DHT22;10075;50.924;4.396;2023-03-24T07:06:33;12.10;99.90
19829;DHT22;10075;50.924;4.396;2023-03-24T07:09:00;12.00;99.90
19829;DHT22;10075;50.924;4.396;2023-03-24T07:11:27;11.70;99.90
19829;DHT22;10075;50.924;4.396;2023-03-24T07:13:54;11.60;99.90
19829;DHT22;10075;50.924;4.396;2023-03-24T07:16:21;11.60;99.90
19829;DHT22;10075;50.924;4.396;2023-03-24T07:18:48;11.60;99.90
19829;DHT22;10075;50.924;4.396;2023-03-24T07:21:17;11.90;99.90
19829;DHT22;10075;50.924;4.396;2023-03-24T07:23:44;12.20;99.90
19829;DHT22;10075;50.924;4.396;2023-03-24T07:26:11;12.40;99.90
19829;DHT22;10075;50.924;4.396;2023-03-24T07:28:38;12.50;99.90
19829;DHT22;10075;50.924;4.396;2023-03-24T07:31:06;12.50;99.90
19829;DHT22;10075;50.924;4.396;2023-03-24T07:33:35;12.70;99.90
19829;DHT22;10075;50.924;4.396;2023-03-24T07:36:03;12.60;99.90
19829;DHT22;10075;50.924;4.396;2023-03-24T07:38:32;12.50;99.90
19829;DHT22;10075;50.924;4.396;2023-03-24T07:41:00;12.70;99.90
19829;DHT22;10075;50.924;4.396;2023-03-24T07:43:27;12.90;99.90
19829;DHT22;10075;50.924;4.396;2023-03-24T07:45:54;13.10;99.90
19829;DHT22;10075;50.924;4.396;2023-03-24T07:48:21;12.90;99.90
19829;DHT22;10075;50.924;4.396;2023-03-24T07:50:48;12.80;99.90
19829;DHT22;10075;50.924;4.396;2023-03-24T07:53:15;12.70;99.90
19829;DHT22;10075;50.924;4.396;2023-03-24T07:55:45;12.50;99.90
19829;DHT22;10075;50.924;4.396;2023-03-24T07:58:13;12.40;99.90
19829;DHT22;10075;50.924;4.396;2023-03-24T08:00:40;12.50;99.90
19829;DHT22;10075;50.924;4.396;2023-03-24T08:03:08;12.50;99.90
19829;DHT22;10075;50.924;4.396;2023-03-24T08:05:40;12.40;99.90
19829;DHT22;10075;50.924;4.396;2023-03-24T08:08:08;12.40;99.90
19829;DHT22;10075;50.924;4.396;2023-03-24T08:10:36;12.30;99.90
19829;DHT22;10075;50.924;4.396;2023-03-24T08:13:05;12.20;99.90
19829;DHT22;10075;50.924;4.396;2023-03-24T08:15:32;12.20;99.90
19829;DHT22;10075;50.924;4.396;2023-03-24T08:17:59;12.30;99.90
19829;DHT22;10075;50.924;4.396;2023-03-24T08:20:26;12.30;99.90
19829;DHT22;10075;50.924;4.396;2023-03-24T08:22:54;12.50;99.90
19829;DHT22;10075;50.924;4.396;2023-03-24T08:25:23;12.70;99.90
19829;DHT22;10075;50.924;4.396;2023-03-24T08:27:52;12.90;99.90
19829;DHT22;10075;50.924;4.396;2023-03-24T08:30:22;13.00;99.90
19829;DHT22;10075;50.924;4.396;2023-03-24T08:32:51;13.20;99.90
19829;DHT22;10075;50.924;4.396;2023-03-24T08:35:20;13.50;99.90
19829;DHT22;10075;50.924;4.396;2023-03-24T08:37:49;13.60;99.90
19829;DHT22;10075;50.924;4.396;2023-03-24T08:40:18;13.40;99.90
19829;DHT22;10075;50.924;4.396;2023-03-24T08:42:49;13.20;99.90
19829;DHT22;10075;50.924;4.396;2023-03-24T08:45:17;13.30;99.90
19829;DHT22;10075;50.924;4.396;2023-03-24T08:47:47;13.30;99.90
19829;DHT22;10075;50.924;4.396;2023-03-24T08:50:15;13.30;99.90
19829;DHT22;10075;50.924;4.396;2023-03-24T08:52:42;13.40;99.90
19829;DHT22;10075;50.924;4.396;2023-03-24T08:55:12;13.60;99.90
19829;DHT22;10075;50.924;4.396;2023-03-24T08:57:40;13.70;99.90
19829;DHT22;10075;50.924;4.396;2023-03-24T09:00:08;13.70;99.90
19829;DHT22;10075;50.924;4.396;2023-03-24T09:02:39;13.70;99.90
19829;DHT22;10075;50.924;4.396;2023-03-24T09:05:08;14.00;99.90
19829;DHT22;10075;50.924;4.396;2023-03-24T09:07:36;14.10;99.90
19829;DHT22;10075;50.924;4.396;2023-03-24T09:10:03;14.00;99.90
19829;DHT22;10075;50.924;4.396;2023-03-24T09:12:31;14.10;99.90
19829;DHT22;10075;50.924;4.396;2023-03-24T09:14:58;14.30;99.90
19829;DHT22;10075;50.924;4.396;2023-03-24T09:17:25;14.40;99.90
19829;DHT22;10075;50.924;4.396;2023-03-24T09:19:52;14.50;99.90
19829;DHT22;10075;50.924;4.396;2023-03-24T09:22:21;14.70;99.90
19829;DHT22;10075;50.924;4.396;2023-03-24T09:24:49;15.00;99.90
19829;DHT22;10075;50.924;4.396;2023-03-24T09:27:16;15.10;99.90
19829;DHT22;10075;50.924;4.396;2023-03-24T09:29:43;15.10;99.90
19829;DHT22;10075;50.924;4.396;2023-03-24T09:32:10;14.60;99.90
19829;DHT22;10075;50.924;4.396;2023-03-24T09:34:37;14.50;99.90
19829;DHT22;10075;50.924;4.396;2023-03-24T09:37:04;14.20;99.90
19829;DHT22;10075;50.924;4.396;2023-03-24T09:39:34;14.20;99.90
19829;DHT22;10075;50.924;4.396;2023-03-24T09:42:03;14.20;99.90
19829;DHT22;10075;50.924;4.396;2023-03-24T09:44:34;14.50;99.90
19829;DHT22;10075;50.924;4.396;2023-03-24T09:47:05;14.60;99.90
19829;DHT22;10075;50.924;4.396;2023-03-24T09:49:39;14.70;99.90
19829;DHT22;10075;50.924;4.396;2023-03-24T09:52:11;14.90;99.90
19829;DHT22;10075;50.924;4.396;2023-03-24T09:54:43;15.00;99.90
19829;DHT22;10075;50.924;4.396;2023-03-24T09:57:17;15.00;99.90
19829;DHT22;10075;50.924;4.396;2023-03-24T09:59:46;14.90;99.90
19829;DHT22;10075;50.924;4.396;2023-03-24T10:02:15;14.90;99.90
19829;DHT22;10075;50.924;4.396;2023-03-24T10:04:44;15.00;99.90
19829;DHT22;10075;50.924;4.396;2023-03-24T10:07:17;15.00;99.90
19829;DHT22;10075;50.924;4.396;2023-03-24T10:09:49;15.00;99.90
19829;DHT22;10075;50.924;4.396;2023-03-24T10:12:25;15.00;99.90
19829;DHT22;10075;50.924;4.396;2023-03-24T10:15:03;14.90;99.90
19829;DHT22;10075;50.924;4.396;2023-03-24T10:17:40;14.90;99.90
19829;DHT22;10075;50.924;4.396;2023-03-24T10:20:23;14.80;99.90
19829;DHT22;10075;50.924;4.396;2023-03-24T10:22:58;14.70;99.90
19829;DHT22;10075;50.924;4.396;2023-03-24T10:25:37;14.80;99.90
19829;DHT22;10075;50.924;4.396;2023-03-24T10:28:15;14.50;99.90
19829;DHT22;10075;50.924;4.396;2023-03-24T10:30:45;14.60;99.90
19829;DHT22;10075;50.924;4.396;2023-03-24T10:33:13;14.90;99.90
19829;DHT22;10075;50.924;4.396;2023-03-24T10:35:47;15.10;99.90
19829;DHT22;10075;50.924;4.396;2023-03-24T10:38:17;15.60;99.90
19829;DHT22;10075;50.924;4.396;2023-03-24T10:40:47;16.20;99.90
19829;DHT22;10075;50.924;4.396;2023-03-24T10:43:15;16.10;99.90
19829;DHT22;10075;50.924;4.396;2023-03-24T10:45:46;15.90;99.90
19829;DHT22;10075;50.924;4.396;2023-03-24T10:48:15;15.50;99.90
19829;DHT22;10075;50.924;4.396;2023-03-24T10:50:59;15.30;99.90
19829;DHT22;10075;50.924;4.396;2023-03-24T10:53:26;15.20;99.90
19829;DHT22;10075;50.924;4.396;2023-03-24T10:55:54;15.30;99.90
19829;DHT22;10075;50.924;4.396;2023-03-24T10:58:28;15.40;99.90
19829;DHT22;10075;50.924;4.396;2023-03-24T11:00:57;15.50;99.90
19829;DHT22;10075;50.924;4.396;2023-03-24T11:03:28;15.60;99.90
19829;DHT22;10075;50.924;4.396;2023-03-24T11:06:00;15.70;99.90
19829;DHT22;10075;50.924;4.396;2023-03-24T11:08:32;16.00;99.90
19829;DHT22;10075;50.924;4.396;2023-03-24T11:11:12;16.10;99.90
19829;DHT22;10075;50.924;4.396;2023-03-24T11:13:40;15.90;99.90
19829;DHT22;10075;50.924;4.396;2023-03-24T11:16:11;15.90;99.90
19829;DHT22;10075;50.924;4.396;2023-03-24T11:18:54;16.00;99.90
19829;DHT22;10075;50.924;4.396;2023-03-24T11:21:21;16.20;99.90
19829;DHT22;10075;50.924;4.396;2023-03-24T11:23:49;16.40;99.90
19829;DHT22;10075;50.924;4.396;2023-03-24T11:26:20;16.60;99.90
19829;DHT22;10075;50.924;4.396;2023-03-24T11:28:49;16.70;99.90
19829;DHT22;10075;50.924;4.396;2023-03-24T11:31:22;16.60;99.90
19829;DHT22;10075;50.924;4.396;2023-03-24T11:33:55;16.80;99.90
19829;DHT22;10075;50.924;4.396;2023-03-24T11:36:37;17.00;99.90
19829;DHT22;10075;50.924;4.396;2023-03-24T11:39:11;16.90;99.90
19829;DHT22;10075;50.924;4.396;2023-03-24T11:41:42;16.50;99.90
19829;DHT22;10075;50.924;4.396;2023-03-24T11:44:18;16.00;99.90
19829;DHT22;10075;50.924;4.396;2023-03-24T11:46:49;15.80;99.90
19829;DHT22;10075;50.924;4.396;2023-03-24T11:49:20;15.80;99.90
19829;DHT22;10075;50.924;4.396;2023-03-24T11:51:51;15.90;99.90
19829;DHT22;10075;50.924;4.396;2023-03-24T11:54:22;16.10;99.90
19829;DHT22;10075;50.924;4.396;2023-03-24T11:56:53;16.00;99.90
19829;DHT22;10075;50.924;4.396;2023-03-24T11:59:27;15.80;99.90
19829;DHT22;10075;50.924;4.396;2023-03-24T12:02:03;15.80;99.90
19829;DHT22;10075;50.924;4.396;2023-03-24T12:05:03;15.90;99.90
19829;DHT22;10075;50.924;4.396;2023-03-24T12:07:50;16.20;99.90
19829;DHT22;10075;50.924;4.396;2023-03-24T12:10:31;16.30;99.90
19829;DHT22;10075;50.924;4.396;2023-03-24T12:13:06;16.70;99.90
19829;DHT22;10075;50.924;4.396;2023-03-24T12:15:39;16.80;99.90
19829;DHT22;10075;50.924;4.396;2023-03-24T12:18:35;17.10;99.90
19829;DHT22;10075;50.924;4.396;2023-03-24T12:21:11;16.40;99.90
19829;DHT22;10075;50.924;4.396;2023-03-24T12:23:50;16.40;99.90
19829;DHT22;10075;50.924;4.396;2023-03-24T12:26:22;16.30;99.90
19829;DHT22;10075;50.924;4.396;2023-03-24T12:29:03;16.50;99.90
19829;DHT22;10075;50.924;4.396;2023-03-24T12:31:50;16.60;99.90
19829;DHT22;10075;50.924;4.396;2023-03-24T12:34:40;16.50;99.90
19829;DHT22;10075;50.924;4.396;2023-03-24T12:37:19;16.50;99.90
19829;DHT22;10075;50.924;4.396;2023-03-24T12:39:57;16.20;99.90
19829;DHT22;10075;50.924;4.396;2023-03-24T12:42:29;15.80;99.90
19829;DHT22;10075;50.924;4.396;2023-03-24T12:45:19;15.60;99.90
19829;DHT22;10075;50.924;4.396;2023-03-24T12:50:53;15.50;99.90
19829;DHT22;10075;50.924;4.396;2023-03-24T12:53:38;15.30;99.90
19829;DHT22;10075;50.924;4.396;2023-03-24T12:56:13;15.10;99.90
19829;DHT22;10075;50.924;4.396;2023-03-24T12:58:44;15.00;99.90
19829;DHT22;10075;50.924;4.396;2023-03-24T13:01:19;15.10;99.90
19829;DHT22;10075;50.924;4.396;2023-03-24T13:03:54;15.20;99.90
19829;DHT22;10075;50.924;4.396;2023-03-24T13:06:24;14.90;99.90
19829;DHT22;10075;50.924;4.396;2023-03-24T13:09:03;14.40;99.90
19829;DHT22;10075;50.924;4.396;2023-03-24T13:11:37;13.70;99.90
19829;DHT22;10075;50.924;4.396;2023-03-24T13:14:11;12.70;99.90
19829;DHT22;10075;50.924;4.396;2023-03-24T13:16:42;11.70;99.90
19829;DHT22;10075;50.924;4.396;2023-03-24T13:19:16;11.50;99.90
19829;DHT22;10075;50.924;4.396;2023-03-24T13:21:45;12.10;99.90
19829;DHT22;10075;50.924;4.396;2023-03-24T13:24:13;12.40;99.90
19829;DHT22;10075;50.924;4.396;2023-03-24T13:26:49;12.70;99.90
19829;DHT22;10075;50.924;4.396;2023-03-24T13:32:20;12.70;99.90
19829;DHT22;10075;50.924;4.396;2023-03-24T13:34:55;12.80;99.90
19829;DHT22;10075;50.924;4.396;2023-03-24T13:37:27;12.70;99.90
19829;DHT22;10075;50.924;4.396;2023-03-24T13:39:56;12.80;99.90
19829;DHT22;10075;50.924;4.396;2023-03-24T13:42:29;12.60;99.90
19829;DHT22;10075;50.924;4.396;2023-03-24T13:44:58;12.70;99.90
19829;DHT22;10075;50.924;4.396;2023-03-24T13:47:46;13.00;99.90
19829;DHT22;10075;50.924;4.396;2023-03-24T13:50:15;13.40;99.90
19829;DHT22;10075;50.924;4.396;2023-03-24T13:52:44;13.70;99.90
19829;DHT22;10075;50.924;4.396;2023-03-24T13:55:17;13.80;99.90
19829;DHT22;10075;50.924;4.396;2023-03-24T13:57:53;14.00;99.90
19829;DHT22;10075;50.924;4.396;2023-03-24T14:00:22;14.00;99.90
19829;DHT22;10075;50.924;4.396;2023-03-24T14:02:52;13.80;99.90
19829;DHT22;10075;50.924;4.396;2023-03-24T14:05:31;13.70;99.90
19829;DHT22;10075;50.924;4.396;2023-03-24T14:08:13;13.60;99.90
19829;DHT22;10075;50.924;4.396;2023-03-24T14:10:44;13.50;99.90
19829;DHT22;10075;50.924;4.396;2023-03-24T14:13:22;13.10;99.90
19829;DHT22;10075;50.924;4.396;2023-03-24T14:15:51;12.60;99.90
19829;DHT22;10075;50.924;4.396;2023-03-24T14:18:39;12.60;99.90
19829;DHT22;10075;50.924;4.396;2023-03-24T14:21:07;12.60;99.90
19829;DHT22;10075;50.924;4.396;2023-03-24T14:23:39;12.70;99.90
19829;DHT22;10075;50.924;4.396;2023-03-24T14:26:11;12.90;99.90
19829;DHT22;10075;50.924;4.396;2023-03-24T14:28:39;13.20;99.90
19829;DHT22;10075;50.924;4.396;2023-03-24T14:31:19;13.40;99.90
19829;DHT22;10075;50.924;4.396;2023-03-24T14:34:06;13.60;99.90
19829;DHT22;10075;50.924;4.396;2023-03-24T14:36:36;13.80;99.90
19829;DHT22;10075;50.924;4.396;2023-03-24T14:39:22;13.90;99.90
19829;DHT22;10075;50.924;4.396;2023-03-24T14:41:51;13.90;99.90
19829;DHT22;10075;50.924;4.396;2023-03-24T14:44:52;14.00;99.90
19829;DHT22;10075;50.924;4.396;2023-03-24T14:47:21;14.20;99.90
19829;DHT22;10075;50.924;4.396;2023-03-24T14:49:51;14.40;99.90
19829;DHT22;10075;50.924;4.396;2023-03-24T14:52:20;14.60;99.90
19829;DHT22;10075;50.924;4.396;2023-03-24T14:54:52;14.70;99.90
19829;DHT22;10075;50.924;4.396;2023-03-24T14:57:22;14.80;99.90
19829;DHT22;10075;50.924;4.396;2023-03-24T14:59:54;14.80;99.90
19829;DHT22;10075;50.924;4.396;2023-03-24T15:02:28;15.40;99.90
19829;DHT22;10075;50.924;4.396;2023-03-24T15:05:28;16.40;99.90
19829;DHT22;10075;50.924;4.396;2023-03-24T15:08:10;17.40;99.90
19829;DHT22;10075;50.924;4.396;2023-03-24T15:10:40;18.50;99.90
19829;DHT22;10075;50.924;4.396;2023-03-24T15:13:36;18.90;99.90
19829;DHT22;10075;50.924;4.396;2023-03-24T15:16:07;19.40;99.90
19829;DHT22;10075;50.924;4.396;2023-03-24T15:18:45;19.30;99.90
19829;DHT22;10075;50.924;4.396;2023-03-24T15:21:15;20.00;99.90
19829;DHT22;10075;50.924;4.396;2023-03-24T15:23:47;20.90;99.90
19829;DHT22;10075;50.924;4.396;2023-03-24T15:26:15;21.60;99.90
19829;DHT22;10075;50.924;4.396;2023-03-24T15:28:43;22.10;99.90
19829;DHT22;10075;50.924;4.396;2023-03-24T15:31:14;23.10;99.70
19829;DHT22;10075;50.924;4.396;2023-03-24T15:33:42;23.60;98.40
19829;DHT22;10075;50.924;4.396;2023-03-24T15:36:15;23.60;97.00
19829;DHT22;10075;50.924;4.396;2023-03-24T15:38:47;22.90;96.50
19829;DHT22;10075;50.924;4.396;2023-03-24T15:41:18;23.10;96.30
19829;DHT22;10075;50.924;4.396;2023-03-24T15:43:47;23.50;95.70
19829;DHT22;10075;50.924;4.396;2023-03-24T15:46:25;23.50;95.50
19829;DHT22;10075;50.924;4.396;2023-03-24T15:48:53;23.90;94.90
19829;DHT22;10075;50.924;4.396;2023-03-24T15:51:47;23.70;94.70
19829;DHT22;10075;50.924;4.396;2023-03-24T15:54:20;23.90;93.90
19829;DHT22;10075;50.924;4.396;2023-03-24T15:57:16;22.80;94.80
19829;DHT22;10075;50.924;4.396;2023-03-24T15:59:45;22.40;96.60
19829;DHT22;10075;50.924;4.396;2023-03-24T16:02:23;22.50;95.40
19829;DHT22;10075;50.924;4.396;2023-03-24T16:04:54;21.50;96.60
19829;DHT22;10075;50.924;4.396;2023-03-24T16:07:25;20.10;98.40
19829;DHT22;10075;50.924;4.396;2023-03-24T16:09:56;19.10;99.90
19829;DHT22;10075;50.924;4.396;2023-03-24T16:12:30;18.90;99.90
19829;DHT22;10075;50.924;4.396;2023-03-24T16:14:57;18.80;99.90
19829;DHT22;10075;50.924;4.396;2023-03-24T16:17:24;18.00;99.90
19829;DHT22;10075;50.924;4.396;2023-03-24T16:19:51;17.00;99.90